Etusivu
METAR-TAF:

METAR-TAF

Lentoasemat :

Creston, Iowa, Yhdysvallat

Leveyspiiri: 41-01N, Pituuspiiri: 094-22W, korkeus merenpinnasta: 394 m

Tämänhetkinen sää

Tämä raportti tehtiin 18 minuuttia sitten, kello 09.15 UTC
Tuuli 9 kn idästä
Lämpötila -4°C
Kosteus 100%
Ilmanpaine 1033 hPa
Näkyvyys: 9.7 km
Pilvistä 500 ft:n korkeudessa
utua

METAR: KCSQ 190915Z AUTO 10009KT 6SM BR OVC005 M04/M04 A3049 RMK AO2

Aika: 03:33 (09:33 UTC)


TAF: puuttuu

Säähavainnot ja -ennusteet yli 4000 lentoasemalta (METAR- ja TAF-raportit).

Käytössä olevat sääasemat on merkitty karttaan keltaisilla ja punaisilla pisteillä.

Aseta hiiri pisteen päälle nähdäksesi sääaseman nimen.

Klikkaa sitten nähdäksesi säähavainnot ja -ennusteet.

Kartan vaihtaminen: klikkaa mustalla rastilla varustettuja vihreitä pisteitä, niin voit zoomata sisään; viivalla varustettua vihreää pistettä, niin voit zoomata ulos tai vihreitä nuolia, niin pääset viereisille kartoille.


METAR-TAF: